Time;durP1;ratioP1;P1;durP2;ratioP2;P2;SDS_P1;SDS_P2;PMS_P1;PMS_P2;Temp;Humidity;BMP_temperature;BMP_pressure;BME280_temperature;BME280_humidity;BME280_pressure;Samples;Min_cycle;Max_cycle;Signal;HPM_P1;HPM_P2
2023/08/26 00:02:19;;;;;;;1.23;0.83;;;17.60;99.90;;;;;;4869288;28;20033;-22
2023/08/26 00:04:46;;;;;;;2.70;1.00;;;17.50;99.90;;;;;;4956750;28;20514;-21
2023/08/26 00:07:12;;;;;;;1.73;1.08;;;17.50;99.90;;;;;;4884602;28;20041;-20
2023/08/26 00:09:38;;;;;;;1.93;0.90;;;17.50;99.90;;;;;;4872476;28;20497;-20
2023/08/26 00:12:04;;;;;;;1.20;0.90;;;17.50;99.90;;;;;;4901417;28;20090;-20
2023/08/26 00:14:30;;;;;;;1.42;0.93;;;17.40;99.90;;;;;;4888664;28;20036;-22
2023/08/26 00:16:56;;;;;;;2.07;1.20;;;17.40;99.90;;;;;;4896842;29;20028;-21
2023/08/26 00:19:21;;;;;;;1.30;0.90;;;17.40;99.90;;;;;;4941977;28;20393;-23
2023/08/26 00:21:47;;;;;;;1.67;1.03;;;17.40;99.90;;;;;;4959581;28;20178;-21
2023/08/26 00:24:13;;;;;;;1.38;0.90;;;17.30;99.90;;;;;;4898174;28;20461;-20
2023/08/26 00:26:39;;;;;;;1.70;1.00;;;17.30;99.90;;;;;;4874312;28;20345;-21
2023/08/26 00:29:05;;;;;;;1.40;0.80;;;17.30;99.90;;;;;;4896586;28;20040;-21
2023/08/26 00:31:31;;;;;;;1.75;0.93;;;17.30;99.90;;;;;;4888768;28;20050;-24
2023/08/26 00:33:57;;;;;;;3.00;1.00;;;17.30;99.90;;;;;;4871313;28;20435;-20
2023/08/26 00:36:23;;;;;;;1.50;0.90;;;17.20;99.90;;;;;;4932863;28;20070;-22
2023/08/26 00:38:49;;;;;;;1.60;0.90;;;17.20;99.90;;;;;;4933368;28;20467;-20
2023/08/26 00:41:15;;;;;;;2.67;1.00;;;17.20;99.90;;;;;;4860401;28;20067;-20
2023/08/26 00:43:40;;;;;;;1.35;1.00;;;17.10;99.90;;;;;;4894472;28;20304;-22
2023/08/26 00:46:06;;;;;;;1.23;0.90;;;17.10;99.90;;;;;;4948488;28;20056;-21
2023/08/26 00:48:32;;;;;;;1.77;0.90;;;17.10;99.90;;;;;;4885894;28;20040;-22
2023/08/26 00:50:58;;;;;;;1.20;0.90;;;17.00;99.90;;;;;;4887042;28;20028;-22
2023/08/26 00:53:24;;;;;;;2.95;1.30;;;17.00;99.90;;;;;;4892549;28;20028;-22
2023/08/26 00:55:51;;;;;;;1.30;0.80;;;17.00;99.90;;;;;;4876057;28;20052;-20
2023/08/26 00:58:18;;;;;;;1.10;0.70;;;16.90;99.90;;;;;;4876302;28;20086;-22
2023/08/26 01:00:44;;;;;;;1.90;0.90;;;16.90;99.90;;;;;;4872306;28;20028;-23
2023/08/26 01:03:11;;;;;;;1.50;0.87;;;;;;;;;;4908381;23;20606;-21
2023/08/26 01:05:36;;;;;;;0.98;0.80;;;16.80;99.90;;;;;;4858734;28;20608;-21
2023/08/26 01:08:06;;;;;;;1.30;0.80;;;16.80;99.90;;;;;;4901734;28;20211;-23
2023/08/26 01:10:50;;;;;;;1.20;0.80;;;16.80;99.90;;;;;;4878659;28;20054;-22
2023/08/26 01:13:17;;;;;;;1.00;0.90;;;16.80;99.90;;;;;;4876151;28;20492;-20
2023/08/26 01:15:48;;;;;;;2.45;0.93;;;16.80;99.90;;;;;;4889343;28;20388;-21
2023/08/26 01:18:15;;;;;;;0.88;0.70;;;16.70;99.90;;;;;;4898211;29;20020;-19
2023/08/26 01:20:43;;;;;;;1.55;0.80;;;16.70;99.90;;;;;;4876777;28;20689;-21
2023/08/26 01:23:48;;;;;;;1.20;0.73;;;16.70;99.90;;;;;;4980729;28;20488;-19
2023/08/26 01:26:15;;;;;;;1.00;0.80;;;16.70;99.90;;;;;;4879433;28;20464;-19
2023/08/26 01:28:41;;;;;;;1.58;1.00;;;16.60;99.90;;;;;;4868865;28;20509;-20
2023/08/26 01:31:11;;;;;;;0.95;0.80;;;16.60;99.90;;;;;;4896621;28;20055;-19
2023/08/26 01:33:49;;;;;;;1.35;0.80;;;16.60;99.90;;;;;;4882058;28;20087;-20
2023/08/26 01:36:19;;;;;;;1.17;0.90;;;16.60;99.90;;;;;;4885105;28;20511;-20
2023/08/26 01:38:46;;;;;;;1.10;0.80;;;16.60;99.90;;;;;;4896308;28;20068;-19
2023/08/26 01:41:17;;;;;;;0.93;0.85;;;16.50;99.90;;;;;;4895089;28;20432;-19
2023/08/26 01:43:43;;;;;;;1.58;0.88;;;16.50;99.90;;;;;;4952660;28;20520;-21
2023/08/26 01:46:09;;;;;;;0.98;0.88;;;16.50;99.90;;;;;;4900986;28;20036;-20
2023/08/26 01:48:34;;;;;;;1.73;0.87;;;16.50;99.90;;;;;;4887756;28;20035;-20
2023/08/26 01:51:01;;;;;;;1.50;0.82;;;17.10;99.90;;;;;;4961228;28;20085;-21
2023/08/26 01:53:26;;;;;;;1.60;0.80;;;16.40;99.90;;;;;;4949166;28;20484;-22
2023/08/26 01:55:52;;;;;;;2.20;0.70;;;16.50;99.90;;;;;;4887384;28;20051;-20
2023/08/26 01:58:18;;;;;;;1.20;0.70;;;16.40;99.90;;;;;;4985160;28;20035;-20
2023/08/26 02:00:43;;;;;;;1.60;0.80;;;16.40;99.90;;;;;;4877111;28;20367;-21
2023/08/26 02:03:09;;;;;;;1.73;0.80;;;16.40;99.90;;;;;;4983054;28;20896;-20
2023/08/26 02:05:35;;;;;;;1.43;0.70;;;16.40;99.90;;;;;;4955460;28;20048;-21
2023/08/26 02:08:01;;;;;;;0.93;0.80;;;16.40;99.90;;;;;;4887085;28;20120;-19
2023/08/26 02:10:26;;;;;;;1.53;0.70;;;16.40;99.90;;;;;;4905996;28;20062;-21
2023/08/26 02:12:52;;;;;;;1.40;0.80;;;16.30;99.90;;;;;;4955084;28;20359;-20
2023/08/26 02:15:18;;;;;;;1.17;0.70;;;16.90;99.90;;;;;;4879443;28;20476;-21
2023/08/26 02:17:43;;;;;;;1.27;0.73;;;16.30;99.90;;;;;;4974989;28;20036;-21
2023/08/26 02:20:09;;;;;;;1.47;0.90;;;16.30;99.90;;;;;;4889731;28;20029;-22
2023/08/26 02:22:35;;;;;;;0.80;0.80;;;16.30;99.90;;;;;;4884977;28;20485;-22
2023/08/26 02:25:01;;;;;;;1.33;0.80;;;16.30;99.90;;;;;;4954079;28;20229;-22
2023/08/26 02:27:27;;;;;;;1.15;0.70;;;16.30;99.90;;;;;;4969094;28;20657;-22
2023/08/26 02:29:52;;;;;;;1.02;0.80;;;16.20;99.90;;;;;;4872984;28;20536;-22
2023/08/26 02:32:18;;;;;;;1.30;0.90;;;16.10;99.90;;;;;;4977650;28;20520;-21
2023/08/26 02:34:44;;;;;;;1.58;0.73;;;16.20;99.90;;;;;;4889434;28;20032;-22
2023/08/26 02:37:10;;;;;;;0.87;0.70;;;16.20;99.90;;;;;;4888688;28;20032;-22
2023/08/26 02:39:35;;;;;;;0.73;0.70;;;16.10;99.90;;;;;;4889203;28;20432;-22
2023/08/26 02:42:01;;;;;;;1.80;0.80;;;16.10;99.90;;;;;;4882487;28;20397;-21
2023/08/26 02:44:27;;;;;;;0.82;0.80;;;16.10;99.90;;;;;;4894202;28;20057;-22
2023/08/26 02:46:52;;;;;;;0.80;0.73;;;16.10;99.90;;;;;;4927311;28;20527;-22
2023/08/26 02:49:18;;;;;;;0.85;0.70;;;16.10;99.90;;;;;;4901804;28;20099;-22
2023/08/26 02:51:44;;;;;;;1.50;0.80;;;16.10;99.90;;;;;;4890003;28;20038;-21
2023/08/26 02:54:10;;;;;;;1.10;0.90;;;16.10;99.90;;;;;;4968457;28;20037;-22
2023/08/26 02:56:35;;;;;;;1.03;0.80;;;16.10;99.90;;;;;;4961834;28;20117;-23
2023/08/26 02:59:01;;;;;;;1.65;0.75;;;16.10;99.90;;;;;;4896095;28;20036;-24
2023/08/26 03:01:30;;;;;;;1.40;0.90;;;16.10;99.90;;;;;;4955785;28;20028;-22
2023/08/26 03:03:57;;;;;;;1.35;0.80;;;16.20;99.90;;;;;;4903107;28;20038;-23
2023/08/26 03:06:23;;;;;;;1.30;0.75;;;16.20;99.90;;;;;;4895369;28;20031;-21
2023/08/26 03:08:49;;;;;;;1.50;0.80;;;16.20;99.90;;;;;;4878895;28;20042;-22
2023/08/26 03:11:14;;;;;;;1.30;0.80;;;16.20;99.90;;;;;;4967704;28;20025;-22
2023/08/26 03:13:40;;;;;;;1.60;0.82;;;16.10;99.90;;;;;;4966773;28;20128;-23
2023/08/26 03:16:08;;;;;;;1.97;0.80;;;16.10;99.90;;;;;;4900639;28;20958;-23
2023/08/26 03:18:34;;;;;;;1.23;0.90;;;16.10;99.90;;;;;;4883934;28;20110;-22
2023/08/26 03:21:04;;;;;;;1.08;0.73;;;16.10;99.90;;;;;;4903373;28;20387;-23
2023/08/26 03:23:30;;;;;;;1.52;0.80;;;16.00;99.90;;;;;;4888691;28;20627;-21
2023/08/26 03:25:55;;;;;;;2.23;1.00;;;16.00;99.90;;;;;;4951027;28;20249;-24
2023/08/26 03:28:21;;;;;;;1.00;0.80;;;16.00;99.90;;;;;;4888918;28;20100;-23
2023/08/26 03:30:47;;;;;;;1.00;0.90;;;16.00;99.90;;;;;;4895829;28;20332;-21
2023/08/26 03:33:13;;;;;;;0.95;0.77;;;16.00;99.90;;;;;;4949681;28;20162;-22
2023/08/26 03:35:39;;;;;;;2.33;0.80;;;15.90;99.90;;;;;;4973806;28;20040;-24
2023/08/26 03:38:05;;;;;;;2.40;0.77;;;15.90;99.90;;;;;;4887206;28;20029;-21
2023/08/26 03:40:31;;;;;;;1.45;0.70;;;15.90;99.90;;;;;;4881763;28;20549;-23
2023/08/26 03:42:56;;;;;;;0.85;0.77;;;15.90;99.90;;;;;;4871117;28;20278;-23
2023/08/26 03:45:22;;;;;;;1.13;0.70;;;15.90;99.90;;;;;;4895934;28;20025;-21
2023/08/26 03:47:48;;;;;;;2.30;0.90;;;15.80;99.90;;;;;;4931580;28;20028;-21
2023/08/26 03:50:14;;;;;;;1.35;0.93;;;15.80;99.90;;;;;;4974932;28;20041;-23
2023/08/26 03:52:39;;;;;;;1.33;1.00;;;15.80;99.90;;;;;;4896563;28;20111;-23
2023/08/26 03:55:05;;;;;;;0.73;0.63;;;15.80;99.90;;;;;;4941306;28;20143;-22
2023/08/26 03:57:31;;;;;;;0.90;0.80;;;15.80;99.90;;;;;;4964823;28;20068;-24
2023/08/26 03:59:58;;;;;;;1.48;0.70;;;15.80;99.90;;;;;;4881119;28;20090;-23
2023/08/26 04:02:23;;;;;;;0.90;0.80;;;15.80;99.90;;;;;;4888843;28;20792;-21
2023/08/26 04:04:49;;;;;;;0.73;0.70;;;15.70;99.90;;;;;;4930560;28;20052;-24
2023/08/26 04:07:15;;;;;;;1.73;0.80;;;15.80;99.90;;;;;;4960946;28;20032;-22
2023/08/26 04:09:42;;;;;;;1.50;0.90;;;15.70;99.90;;;;;;4956085;28;20119;-23
2023/08/26 04:12:08;;;;;;;1.10;0.80;;;15.70;99.90;;;;;;4895870;28;20024;-21
2023/08/26 04:14:33;;;;;;;2.15;0.80;;;15.70;99.90;;;;;;4963661;28;20579;-21
2023/08/26 04:17:01;;;;;;;0.80;0.70;;;15.70;99.90;;;;;;4955647;28;20351;-23
2023/08/26 04:19:27;;;;;;;1.23;0.80;;;15.70;99.90;;;;;;4948559;28;20049;-23
2023/08/26 04:21:52;;;;;;;1.67;0.82;;;15.70;99.90;;;;;;4972981;28;20114;-23
2023/08/26 04:24:18;;;;;;;2.47;1.00;;;15.60;99.90;;;;;;4896614;28;20485;-22
2023/08/26 04:26:44;;;;;;;1.30;0.73;;;15.60;99.90;;;;;;4950938;28;20318;-22
2023/08/26 04:29:10;;;;;;;1.20;0.80;;;15.60;99.90;;;;;;4966024;28;20040;-22
2023/08/26 04:31:35;;;;;;;0.77;0.73;;;15.60;99.90;;;;;;4887844;28;20214;-24
2023/08/26 04:34:01;;;;;;;1.00;0.77;;;15.60;99.90;;;;;;4973434;28;20138;-22
2023/08/26 04:36:27;;;;;;;1.45;0.70;;;15.60;99.90;;;;;;4952149;28;20032;-22
2023/08/26 04:38:52;;;;;;;1.33;0.90;;;15.60;99.90;;;;;;4898529;28;20360;-23
2023/08/26 04:41:18;;;;;;;0.88;0.80;;;15.60;99.90;;;;;;4876938;28;20024;-22
2023/08/26 04:43:44;;;;;;;1.43;0.80;;;15.60;99.90;;;;;;4899659;28;20028;-22
2023/08/26 04:46:10;;;;;;;2.03;0.80;;;15.60;99.90;;;;;;4871517;28;20031;-22
2023/08/26 04:48:35;;;;;;;1.03;0.77;;;15.50;99.90;;;;;;4892095;28;20035;-22
2023/08/26 04:51:04;;;;;;;1.63;0.80;;;15.60;99.90;;;;;;4935939;28;20041;-22
2023/08/26 04:53:30;;;;;;;1.55;0.70;;;15.50;99.90;;;;;;4898011;28;20032;-22
2023/08/26 04:55:56;;;;;;;0.93;0.82;;;15.60;99.90;;;;;;4887482;28;20428;-22
2023/08/26 04:58:21;;;;;;;1.03;0.90;;;15.60;99.90;;;;;;4873056;28;20029;-21
2023/08/26 05:00:47;;;;;;;0.82;0.80;;;15.60;99.90;;;;;;4883129;28;20028;-19
2023/08/26 05:03:13;;;;;;;1.00;0.83;;;15.60;99.90;;;;;;4941081;28;20035;-21
2023/08/26 05:05:42;;;;;;;1.50;0.88;;;15.60;99.90;;;;;;4976335;28;20102;-19
2023/08/26 05:08:09;;;;;;;2.45;0.90;;;15.50;99.90;;;;;;4862338;28;20662;-21
2023/08/26 05:10:36;;;;;;;1.48;0.80;;;15.00;99.90;;;;;;4890174;28;22239;-20
2023/08/26 05:13:03;;;;;;;1.10;0.97;;;15.60;99.90;;;;;;4965445;28;20038;-20
2023/08/26 05:15:29;;;;;;;0.75;0.68;;;15.60;99.90;;;;;;4891767;28;20313;-19
2023/08/26 05:17:55;;;;;;;2.97;0.90;;;15.60;99.90;;;;;;4887257;28;20516;-19
2023/08/26 05:20:21;;;;;;;1.65;0.85;;;15.60;99.90;;;;;;4902410;28;20459;-21
2023/08/26 05:22:47;;;;;;;0.80;0.70;;;15.60;99.90;;;;;;4941056;28;20062;-19
2023/08/26 05:25:12;;;;;;;2.25;0.80;;;15.70;99.90;;;;;;4897205;28;20593;-22
2023/08/26 05:27:38;;;;;;;0.90;0.80;;;15.60;99.90;;;;;;4889994;28;20237;-19
2023/08/26 05:30:05;;;;;;;1.40;0.73;;;15.70;99.90;;;;;;4883136;28;20541;-20
2023/08/26 05:32:30;;;;;;;1.45;0.70;;;15.70;99.90;;;;;;4873349;28;20650;-20
2023/08/26 05:34:56;;;;;;;0.80;0.60;;;;;;;;;;4902803;28;20393;-21
2023/08/26 05:37:22;;;;;;;1.27;0.80;;;15.70;99.90;;;;;;4939177;28;20036;-21
2023/08/26 05:39:48;;;;;;;2.20;0.80;;;15.60;99.90;;;;;;4961341;28;20551;-19
2023/08/26 05:42:14;;;;;;;1.63;0.90;;;15.70;99.90;;;;;;4898373;28;20028;-23
2023/08/26 05:44:39;;;;;;;1.48;0.90;;;15.80;99.90;;;;;;4946099;28;20564;-20
2023/08/26 05:47:05;;;;;;;1.27;0.87;;;15.80;99.90;;;;;;4951521;28;20036;-19
2023/08/26 05:49:31;;;;;;;1.70;1.00;;;15.80;99.90;;;;;;4887471;28;20617;-20
2023/08/26 05:51:57;;;;;;;1.10;0.83;;;15.90;99.90;;;;;;4878662;28;20171;-21
2023/08/26 05:54:22;;;;;;;2.15;1.00;;;15.90;99.90;;;;;;4859052;28;20029;-19
2023/08/26 05:56:48;;;;;;;0.93;0.80;;;15.90;99.90;;;;;;4882206;28;20528;-20
2023/08/26 05:59:14;;;;;;;0.73;0.73;;;15.60;99.90;;;;;;4961026;28;20024;-19
2023/08/26 06:01:40;;;;;;;0.98;0.80;;;16.00;99.90;;;;;;4877423;28;20032;-22
2023/08/26 06:04:07;;;;;;;1.50;1.00;;;16.00;99.90;;;;;;4824050;28;1947660;-19
2023/08/26 06:06:33;;;;;;;1.05;0.80;;;16.10;99.90;;;;;;4898563;28;20032;-21
2023/08/26 06:08:59;;;;;;;2.00;0.93;;;16.10;99.90;;;;;;4875680;28;20617;-28
2023/08/26 06:11:24;;;;;;;1.08;0.90;;;16.10;99.90;;;;;;4950162;28;20060;-20
2023/08/26 06:13:50;;;;;;;2.07;1.00;;;16.20;99.90;;;;;;4974659;28;20133;-19
2023/08/26 06:16:19;;;;;;;1.60;0.88;;;16.20;99.90;;;;;;4891156;28;20101;-20
2023/08/26 06:18:46;;;;;;;1.45;0.80;;;16.20;99.90;;;;;;4890696;28;20383;-19
2023/08/26 06:21:12;;;;;;;1.98;0.90;;;16.30;99.90;;;;;;4962922;28;20876;-23
2023/08/26 06:23:37;;;;;;;1.00;0.90;;;16.30;99.90;;;;;;4896622;28;20157;-22
2023/08/26 06:26:03;;;;;;;1.45;1.08;;;16.40;99.90;;;;;;4886441;28;21333;-21
2023/08/26 06:28:30;;;;;;;2.27;1.00;;;16.40;99.90;;;;;;4970110;28;20032;-22
2023/08/26 06:31:00;;;;;;;1.42;0.98;;;16.40;99.90;;;;;;4884201;28;20536;-23
2023/08/26 06:33:26;;;;;;;1.35;0.80;;;16.50;99.90;;;;;;4969958;28;20029;-22
2023/08/26 06:35:52;;;;;;;0.98;0.80;;;16.50;99.90;;;;;;4885858;28;20277;-22
2023/08/26 06:38:19;;;;;;;1.97;1.00;;;16.60;99.90;;;;;;4899958;29;20028;-22
2023/08/26 06:40:53;;;;;;;2.03;0.97;;;17.60;99.90;;;;;;4867079;28;20276;-22
2023/08/26 06:43:18;;;;;;;2.13;1.10;;;16.70;99.90;;;;;;4889600;28;20036;-23
2023/08/26 06:45:44;;;;;;;2.20;1.00;;;16.80;99.90;;;;;;4894637;28;20097;-23
2023/08/26 06:48:10;;;;;;;1.50;1.00;;;16.80;99.90;;;;;;4962009;28;20109;-22
2023/08/26 06:50:36;;;;;;;3.17;1.17;;;16.90;99.90;;;;;;4887984;28;20047;-22
2023/08/26 06:53:02;;;;;;;2.45;1.25;;;17.00;99.90;;;;;;4883940;28;20217;-22
2023/08/26 06:55:27;;;;;;;1.63;1.10;;;17.00;99.90;;;;;;4950484;28;20047;-22
2023/08/26 06:57:53;;;;;;;1.75;1.10;;;17.00;99.90;;;;;;4882079;28;20043;-23
2023/08/26 07:00:19;;;;;;;2.70;1.27;;;17.20;99.90;;;;;;4893964;29;20057;-22
2023/08/26 07:02:45;;;;;;;2.23;1.20;;;17.20;99.90;;;;;;4958447;28;20749;-23
2023/08/26 07:05:11;;;;;;;2.28;1.20;;;17.20;99.90;;;;;;4887102;28;20063;-22
2023/08/26 07:07:37;;;;;;;1.87;1.20;;;17.30;99.90;;;;;;4899058;28;20036;-22
2023/08/26 07:10:04;;;;;;;1.40;1.02;;;17.40;99.90;;;;;;4865244;28;20326;-23
2023/08/26 07:12:31;;;;;;;1.73;1.10;;;17.40;99.90;;;;;;4969361;28;20030;-23
2023/08/26 07:14:57;;;;;;;2.55;1.23;;;17.50;99.90;;;;;;4893911;28;20032;-21
2023/08/26 07:17:22;;;;;;;1.60;1.10;;;17.60;99.90;;;;;;4959311;28;20035;-23
2023/08/26 07:19:48;;;;;;;2.80;1.05;;;17.70;99.90;;;;;;4895754;28;20035;-22
2023/08/26 07:22:14;;;;;;;2.22;1.23;;;17.80;99.90;;;;;;4875997;28;20023;-21
2023/08/26 07:24:40;;;;;;;1.80;1.10;;;17.80;99.90;;;;;;4962339;28;20036;-21
2023/08/26 07:27:06;;;;;;;1.83;1.10;;;17.90;99.90;;;;;;4933203;28;20055;-24
2023/08/26 07:29:34;;;;;;;2.07;1.10;;;18.00;99.90;;;;;;4905625;28;20060;-22
2023/08/26 07:32:00;;;;;;;1.55;1.08;;;18.10;99.90;;;;;;4905753;28;20622;-22
2023/08/26 07:34:25;;;;;;;2.28;1.20;;;18.20;99.90;;;;;;4889001;28;20044;-23
2023/08/26 07:36:52;;;;;;;1.40;0.90;;;18.20;99.90;;;;;;4947126;28;20284;-23
2023/08/26 07:39:18;;;;;;;1.70;1.10;;;18.30;99.90;;;;;;4886038;28;20177;-20
2023/08/26 07:41:44;;;;;;;2.08;1.20;;;18.40;99.90;;;;;;4922185;28;20110;-22
2023/08/26 07:44:10;;;;;;;2.27;1.17;;;18.50;99.90;;;;;;4895413;28;20477;-19
2023/08/26 07:46:36;;;;;;;3.70;1.38;;;18.60;99.90;;;;;;4955086;28;20037;-21
2023/08/26 07:49:01;;;;;;;1.23;1.10;;;18.60;99.90;;;;;;4880599;28;20143;-20
2023/08/26 07:51:27;;;;;;;2.30;1.20;;;18.80;99.90;;;;;;4899480;28;20055;-23
2023/08/26 07:53:53;;;;;;;1.35;1.10;;;18.80;99.90;;;;;;4961795;28;20044;-20
2023/08/26 07:56:18;;;;;;;1.67;1.00;;;18.80;99.90;;;;;;4867635;28;20620;-20
2023/08/26 07:58:44;;;;;;;1.27;0.90;;;18.90;99.90;;;;;;4937410;28;20112;-19
2023/08/26 08:01:10;;;;;;;1.13;0.90;;;19.00;99.90;;;;;;4954443;28;20031;-19
2023/08/26 08:03:36;;;;;;;1.50;1.10;;;19.10;99.90;;;;;;4894450;28;20044;-21
2023/08/26 08:06:02;;;;;;;1.77;1.30;;;19.10;99.90;;;;;;4895866;28;20055;-20
2023/08/26 08:08:27;;;;;;;1.35;1.00;;;19.20;99.90;;;;;;4882915;28;20063;-21
2023/08/26 08:10:53;;;;;;;0.85;0.80;;;19.30;99.90;;;;;;4946019;28;20290;-19
2023/08/26 08:13:19;;;;;;;1.57;0.93;;;19.40;99.90;;;;;;4861442;28;20028;-19
2023/08/26 08:15:45;;;;;;;1.40;1.00;;;19.50;99.90;;;;;;4950060;28;20039;-21
2023/08/26 08:18:10;;;;;;;1.47;1.00;;;19.60;99.90;;;;;;4880865;28;20038;-19
2023/08/26 08:20:36;;;;;;;1.63;1.10;;;19.70;99.90;;;;;;4884018;28;20064;-21
2023/08/26 08:23:03;;;;;;;1.17;0.90;;;19.80;99.90;;;;;;4887313;28;20472;-20
2023/08/26 08:25:29;;;;;;;1.95;0.90;;;20.00;99.90;;;;;;4898227;28;20059;-20
2023/08/26 08:27:55;;;;;;;1.63;0.93;;;20.20;99.90;;;;;;4867754;28;20135;-19
2023/08/26 08:30:21;;;;;;;1.43;1.00;;;20.30;99.90;;;;;;4870556;28;20459;-20
2023/08/26 08:32:46;;;;;;;1.92;1.20;;;20.60;99.90;;;;;;4887032;28;20253;-20
2023/08/26 08:35:12;;;;;;;1.17;1.00;;;20.80;99.90;;;;;;4887042;28;20029;-20
2023/08/26 08:37:38;;;;;;;2.03;1.05;;;21.00;99.90;;;;;;4945336;28;20028;-23
2023/08/26 08:40:05;;;;;;;1.53;0.90;;;21.30;99.90;;;;;;4896790;28;20059;-22
2023/08/26 08:42:36;;;;;;;2.47;1.10;;;21.60;99.90;;;;;;4852194;28;20123;-20
2023/08/26 08:45:05;;;;;;;1.38;0.88;;;21.90;99.90;;;;;;4885949;28;20078;-22
2023/08/26 08:47:31;;;;;;;1.92;1.00;;;22.40;99.90;;;;;;4942851;28;20633;-21
2023/08/26 08:49:59;;;;;;;1.50;0.95;;;22.80;99.90;;;;;;4885378;28;20033;-22
2023/08/26 08:52:26;;;;;;;1.60;0.90;;;23.20;99.90;;;;;;4881194;28;20047;-22
2023/08/26 08:54:52;;;;;;;1.05;0.82;;;23.70;99.90;;;;;;4889143;28;20036;-22
2023/08/26 08:57:23;;;;;;;2.63;1.20;;;24.10;99.90;;;;;;4859497;28;20058;-22
2023/08/26 08:59:50;;;;;;;1.48;1.00;;;24.50;99.90;;;;;;4907003;28;20028;-23
2023/08/26 09:02:16;;;;;;;1.98;1.00;;;25.00;99.90;;;;;;4877199;28;20036;-22
2023/08/26 09:04:42;;;;;;;2.30;1.17;;;25.30;99.90;;;;;;4892512;28;20044;-25
2023/08/26 09:07:11;;;;;;;1.23;0.90;;;25.70;99.90;;;;;;4884251;28;20477;-21
2023/08/26 09:09:37;;;;;;;2.88;1.10;;;26.00;99.90;;;;;;4884812;28;20241;-23
2023/08/26 09:12:05;;;;;;;1.98;1.00;;;26.30;99.90;;;;;;4888107;28;20037;-22
2023/08/26 09:14:31;;;;;;;1.55;1.00;;;26.50;99.90;;;;;;4931517;28;20134;-22
2023/08/26 09:17:00;;;;;;;1.63;0.90;;;26.90;99.90;;;;;;4878419;28;20047;-23
2023/08/26 09:19:26;;;;;;;1.80;1.20;;;27.10;99.90;;;;;;4963954;28;20231;-23
2023/08/26 09:21:53;;;;;;;1.65;1.10;;;27.40;99.90;;;;;;4974611;28;20485;-25
2023/08/26 09:24:20;;;;;;;1.90;1.05;;;27.60;99.90;;;;;;4877767;28;20086;-22
2023/08/26 09:26:59;;;;;;;1.58;1.10;;;27.90;99.90;;;;;;4967223;28;20020;-22
2023/08/26 09:29:25;;;;;;;1.13;1.00;;;28.10;99.90;;;;;;4880019;28;20083;-23
2023/08/26 09:31:56;;;;;;;1.38;1.20;;;28.20;99.90;;;;;;4889576;28;20032;-22
2023/08/26 09:34:32;;;;;;;2.20;1.10;;;28.40;99.90;;;;;;4888337;28;20726;-22
2023/08/26 09:36:59;;;;;;;1.45;1.30;;;28.60;99.90;;;;;;4905394;28;20043;-23
2023/08/26 09:39:26;;;;;;;1.30;1.20;;;28.80;99.90;;;;;;4886391;28;20059;-22
2023/08/26 09:41:55;;;;;;;1.87;1.00;;;28.90;99.90;;;;;;4891162;28;20088;-21
2023/08/26 09:44:21;;;;;;;2.58;1.13;;;28.90;99.90;;;;;;4863789;28;26586;-21
2023/08/26 09:46:47;;;;;;;1.73;1.02;;;28.80;99.90;;;;;;4950848;28;20020;-23
2023/08/26 09:49:15;;;;;;;1.30;1.10;;;28.70;99.90;;;;;;4882245;28;20254;-21
2023/08/26 09:51:52;;;;;;;2.30;1.10;;;28.50;99.90;;;;;;4900321;28;20036;-21
2023/08/26 09:54:19;;;;;;;2.03;1.10;;;28.30;98.70;;;;;;4952943;28;20144;-22
2023/08/26 09:56:46;;;;;;;1.33;1.23;;;28.30;99.90;;;;;;4971102;28;20044;-23
2023/08/26 09:59:13;;;;;;;0.90;0.80;;;28.20;99.90;;;;;;4950185;28;20573;-23
2023/08/26 10:01:40;;;;;;;1.52;1.00;;;28.30;99.90;;;;;;4869895;28;20032;-19
2023/08/26 10:04:10;;;;;;;1.40;1.20;;;28.40;99.90;;;;;;4947872;28;20040;-20
2023/08/26 10:06:43;;;;;;;1.43;1.30;;;28.50;99.90;;;;;;4956213;28;20477;-20
2023/08/26 10:09:16;;;;;;;1.23;1.10;;;28.70;99.90;;;;;;4888522;28;20077;-19
2023/08/26 10:11:46;;;;;;;1.23;1.13;;;28.80;99.90;;;;;;4969842;28;20610;-19
2023/08/26 10:14:14;;;;;;;1.30;1.00;;;28.80;99.90;;;;;;4889236;28;20111;-19
2023/08/26 10:16:41;;;;;;;1.85;1.20;;;28.70;99.90;;;;;;4874551;28;20049;-19
2023/08/26 10:19:08;;;;;;;2.20;1.20;;;28.60;99.90;;;;;;4960983;28;20032;-19
2023/08/26 10:21:35;;;;;;;2.78;1.33;;;28.60;99.90;;;;;;4897520;28;20031;-19
2023/08/26 10:24:01;;;;;;;1.52;1.23;;;28.60;99.90;;;;;;4898692;28;20023;-22
2023/08/26 10:26:27;;;;;;;2.08;1.40;;;28.50;99.90;;;;;;4883084;28;20036;-19
2023/08/26 10:28:56;;;;;;;2.08;1.50;;;28.40;99.90;;;;;;4886999;28;20028;-23
2023/08/26 10:31:35;;;;;;;1.60;1.33;;;28.30;99.90;;;;;;4860300;28;20160;-19
2023/08/26 10:34:13;;;;;;;1.10;1.00;;;28.20;99.00;;;;;;4890945;28;20070;-21
2023/08/26 10:36:41;;;;;;;1.98;1.10;;;28.20;96.70;;;;;;4905172;28;20501;-19
2023/08/26 10:39:19;;;;;;;2.15;1.15;;;28.10;99.90;;;;;;4966602;28;20333;-19
2023/08/26 10:42:18;;;;;;;1.33;1.00;;;28.10;99.30;;;;;;4952706;28;20032;-18
2023/08/26 10:44:48;;;;;;;1.33;1.03;;;28.10;99.90;;;;;;4892616;28;20032;-19
2023/08/26 10:47:38;;;;;;;1.60;1.40;;;28.20;99.90;;;;;;4872195;28;20033;-19
2023/08/26 10:50:28;;;;;;;2.53;1.50;;;28.30;99.90;;;;;;4884042;28;20037;-19
2023/08/26 10:53:14;;;;;;;1.60;1.13;;;28.50;99.90;;;;;;4947691;28;20048;-18
2023/08/26 10:55:40;;;;;;;1.55;1.20;;;28.60;99.00;;;;;;4897906;29;20476;-19
2023/08/26 10:58:19;;;;;;;1.57;0.97;;;28.60;99.90;;;;;;4879363;28;20129;-20
2023/08/26 11:00:51;;;;;;;2.25;1.20;;;28.50;98.20;;;;;;4887639;28;20373;-19
2023/08/26 11:03:21;;;;;;;1.10;1.00;;;28.30;99.90;;;;;;4872875;28;20115;-20
2023/08/26 11:06:09;;;;;;;3.67;1.00;;;28.20;99.90;;;;;;4892198;28;20246;-19
2023/08/26 11:08:38;;;;;;;2.38;1.00;;;28.10;96.30;;;;;;4893043;28;20242;-18
2023/08/26 11:11:09;;;;;;;1.40;1.20;;;28.00;99.70;;;;;;4904131;28;20086;-20
2023/08/26 11:13:35;;;;;;;1.67;1.13;;;27.90;99.90;;;;;;4873366;28;20090;-18
2023/08/26 11:16:01;;;;;;;1.30;1.20;;;27.80;99.90;;;;;;4903143;28;20477;-19
2023/08/26 11:18:27;;;;;;;1.20;1.10;;;27.80;99.90;;;;;;4872764;28;20032;-20
2023/08/26 11:20:52;;;;;;;1.15;0.95;;;27.90;99.90;;;;;;4896762;28;20020;-19
2023/08/26 11:23:22;;;;;;;1.27;1.10;;;28.10;99.90;;;;;;4959294;28;20036;-20
2023/08/26 11:25:48;;;;;;;1.55;1.20;;;28.40;99.90;;;;;;4966548;28;20706;-20
2023/08/26 11:28:14;;;;;;;1.10;1.00;;;28.70;99.90;;;;;;4877526;28;20032;-21
2023/08/26 11:30:41;;;;;;;1.30;1.20;;;28.90;99.90;;;;;;4875321;28;20463;-19
2023/08/26 11:33:18;;;;;;;1.40;1.00;;;29.10;99.90;;;;;;4871003;28;20112;-20
2023/08/26 11:35:45;;;;;;;1.02;0.93;;;29.40;99.90;;;;;;4935875;28;20478;-19
2023/08/26 11:38:12;;;;;;;1.10;0.98;;;29.50;99.90;;;;;;4891119;29;20074;-20
2023/08/26 11:40:38;;;;;;;1.23;1.13;;;29.40;99.90;;;;;;4885366;28;20228;-19
2023/08/26 11:43:11;;;;;;;1.13;0.90;;;29.40;99.90;;;;;;4894571;28;20081;-20
2023/08/26 11:45:39;;;;;;;2.55;1.00;;;29.30;97.90;;;;;;4954971;28;20025;-18
2023/08/26 11:48:06;;;;;;;1.80;0.95;;;29.10;99.90;;;;;;4866322;28;20031;-20
2023/08/26 11:50:34;;;;;;;1.08;0.98;;;28.90;99.90;;;;;;4876142;28;20036;-20
2023/08/26 11:53:04;;;;;;;2.07;0.90;;;28.80;99.90;;;;;;4893346;28;20765;-20
2023/08/26 11:55:34;;;;;;;0.80;0.80;;;28.80;99.90;;;;;;4891001;29;20460;-19
2023/08/26 11:58:00;;;;;;;1.10;1.00;;;28.70;99.70;;;;;;4886676;28;20509;-21
2023/08/26 12:00:27;;;;;;;1.08;0.85;;;28.60;99.90;;;;;;4885736;28;20024;-19
2023/08/26 12:02:58;;;;;;;1.25;1.02;;;28.60;99.90;;;;;;4896557;28;20386;-20
2023/08/26 12:05:24;;;;;;;1.00;1.00;;;28.50;99.60;;;;;;4866811;28;20286;-19
2023/08/26 12:07:56;;;;;;;3.00;1.60;;;28.40;99.90;;;;;;4909333;28;20195;-18
2023/08/26 12:10:23;;;;;;;2.03;1.30;;;28.50;99.90;;;;;;4974999;28;20223;-18
2023/08/26 12:12:49;;;;;;;2.65;1.42;;;28.40;99.90;;;;;;4889142;28;20050;-19
2023/08/26 12:15:16;;;;;;;1.42;1.08;;;28.30;99.90;;;;;;4886233;28;20332;-19
2023/08/26 12:17:55;;;;;;;1.60;0.90;;;28.30;99.90;;;;;;4883312;28;20063;-19
2023/08/26 12:20:28;;;;;;;1.10;1.00;;;28.40;99.10;;;;;;4860237;28;20739;-21
2023/08/26 12:23:02;;;;;;;1.42;1.10;;;28.50;99.50;;;;;;4885124;28;20508;-20
2023/08/26 12:25:33;;;;;;;1.30;1.20;;;28.70;99.90;;;;;;4975039;28;20437;-22
2023/08/26 12:28:13;;;;;;;1.42;1.10;;;28.80;99.90;;;;;;4967868;28;20037;-21
2023/08/26 12:30:41;;;;;;;1.60;1.03;;;29.00;99.90;;;;;;4974670;28;20035;-22
2023/08/26 12:33:08;;;;;;;1.30;1.08;;;29.20;99.90;;;;;;4943855;28;20531;-21
2023/08/26 12:35:34;;;;;;;1.48;0.90;;;29.40;99.90;;;;;;4872921;28;20028;-21
2023/08/26 12:38:02;;;;;;;1.17;0.80;;;29.60;99.90;;;;;;4955045;28;20041;-21
2023/08/26 12:40:38;;;;;;;2.17;1.00;;;29.70;99.90;;;;;;4893847;28;20243;-22
2023/08/26 12:43:05;;;;;;;1.37;0.80;;;29.80;99.30;;;;;;4909919;28;20110;-23
2023/08/26 12:45:35;;;;;;;0.88;0.85;;;29.90;99.90;;;;;;4875914;28;20059;-21
2023/08/26 12:48:01;;;;;;;1.23;0.90;;;29.80;98.40;;;;;;4959538;28;20032;-21
2023/08/26 12:50:27;;;;;;;0.73;0.73;;;29.80;99.90;;;;;;4879348;28;20269;-22